createdAt,value
2019-04-01T00:00:17.573Z,100.00
2019-04-01T00:01:18.176Z,100.00
2019-04-01T00:02:18.387Z,100.00
2019-04-01T00:03:18.509Z,100.00
2019-04-01T00:04:18.912Z,100.00
2019-04-01T00:05:19.240Z,100.00
2019-04-01T00:06:19.598Z,100.00
2019-04-01T00:07:19.854Z,100.00
2019-04-01T00:08:20.369Z,100.00
2019-04-01T00:09:20.280Z,100.00
2019-04-01T00:10:20.586Z,100.00
2019-04-01T00:11:20.874Z,100.00
2019-04-01T00:12:21.326Z,100.00
2019-04-01T00:13:21.631Z,100.00
2019-04-01T00:14:21.910Z,100.00
2019-04-01T00:15:22.166Z,100.00
2019-04-01T00:17:22.585Z,100.00
2019-04-01T00:18:23.103Z,100.00
2019-04-01T00:19:22.902Z,100.00
2019-04-01T00:20:23.118Z,100.00
2019-04-01T00:21:23.646Z,100.00
2019-04-01T00:22:23.535Z,100.00
2019-04-01T00:23:23.853Z,100.00
2019-04-01T00:24:24.370Z,100.00
2019-04-01T00:25:24.076Z,100.00
2019-04-01T00:26:24.173Z,100.00
2019-04-01T00:27:24.696Z,100.00
2019-04-01T00:28:24.700Z,100.00
2019-04-01T00:29:24.605Z,100.00
2019-04-01T00:30:24.829Z,100.00
2019-04-01T00:31:24.989Z,100.00
2019-04-01T00:32:25.035Z,100.00
2019-04-01T00:33:25.554Z,100.00
2019-04-01T00:34:25.703Z,100.00
2019-04-01T00:35:25.977Z,100.00
2019-04-01T00:36:26.389Z,100.00
2019-04-01T00:37:26.808Z,100.00
2019-04-01T00:38:27.018Z,100.00
2019-04-01T00:39:27.447Z,100.00
2019-04-01T00:40:27.962Z,100.00
2019-04-01T00:41:27.962Z,100.00
2019-04-01T00:42:27.965Z,100.00
2019-04-01T00:43:28.078Z,100.00
2019-04-01T00:44:28.489Z,100.00
2019-04-01T00:45:28.229Z,100.00
2019-04-01T00:46:28.707Z,100.00
2019-04-01T00:47:28.958Z,100.00
2019-04-01T00:48:29.439Z,100.00
2019-04-01T00:49:29.858Z,100.00
2019-04-01T00:50:30.365Z,100.00
2019-04-01T00:51:30.796Z,100.00
2019-04-01T00:52:31.205Z,100.00
2019-04-01T00:53:31.521Z,100.00
2019-04-01T00:54:31.735Z,100.00
2019-04-01T00:55:32.158Z,100.00
2019-04-01T00:56:32.665Z,100.00
2019-04-01T00:57:32.568Z,100.00
2019-04-01T00:58:32.680Z,100.00
2019-04-01T00:59:33.071Z,100.00
2019-04-01T01:00:32.914Z,100.00
2019-04-01T01:01:33.824Z,100.00
2019-04-01T01:02:33.421Z,100.00
2019-04-01T01:03:33.532Z,100.00
2019-04-01T01:04:34.356Z,100.00
2019-04-01T01:05:34.635Z,100.00
2019-04-01T01:06:35.189Z,100.00
2019-04-01T01:07:34.675Z,100.00
2019-04-01T01:08:35.581Z,100.00
2019-04-01T01:09:35.923Z,100.00
2019-04-01T01:10:36.244Z,100.00
2019-04-01T01:11:36.305Z,100.00
2019-04-01T01:12:36.864Z,100.00
2019-04-01T01:13:36.675Z,100.00
2019-04-01T01:14:37.085Z,100.00
2019-04-01T01:15:37.396Z,100.00
2019-04-01T01:16:37.619Z,100.00
2019-04-01T01:17:38.126Z,100.00
2019-04-01T01:18:38.455Z,100.00
2019-04-01T01:19:38.962Z,100.00
2019-04-01T01:20:38.866Z,100.00
2019-04-01T01:21:39.193Z,100.00
2019-04-01T01:22:39.698Z,100.00
2019-04-01T01:23:39.466Z,100.00
2019-04-01T01:24:39.809Z,100.00
2019-04-01T01:25:40.189Z,100.00
2019-04-01T01:26:40.752Z,100.00
2019-04-01T01:27:40.754Z,100.00
2019-04-01T01:28:40.759Z,100.00
2019-04-01T01:29:41.278Z,100.00
2019-04-01T01:30:40.874Z,100.00
2019-04-01T01:31:40.893Z,100.00
2019-04-01T01:32:41.299Z,100.00
2019-04-01T01:33:41.613Z,100.00
2019-04-01T01:34:42.033Z,100.00
2019-04-01T01:35:42.401Z,100.00
2019-04-01T01:36:42.767Z,100.00
2019-04-01T01:37:43.075Z,100.00
2019-04-01T01:38:43.591Z,100.00
2019-04-01T01:39:43.597Z,100.00
2019-04-01T01:40:43.180Z,100.00
2019-04-01T01:41:43.615Z,100.00
2019-04-01T01:42:44.129Z,100.00
2019-04-01T01:43:44.246Z,100.00
2019-04-01T01:44:43.936Z,100.00
2019-04-01T01:45:44.148Z,100.00
2019-04-01T01:46:44.634Z,100.00
2019-04-01T01:47:44.672Z,100.00
2019-04-01T01:48:44.270Z,100.00
2019-04-01T01:49:44.581Z,100.00
2019-04-01T01:50:45.104Z,100.00
2019-04-01T01:51:45.018Z,100.00
2019-04-01T01:52:45.427Z,100.00
2019-04-01T01:53:45.838Z,100.00
2019-04-01T01:54:46.050Z,100.00
2019-04-01T01:55:46.466Z,100.00
2019-04-01T01:56:46.885Z,100.00
2019-04-01T01:57:47.197Z,100.00
2019-04-01T01:58:47.819Z,100.00
2019-04-01T01:59:47.725Z,100.00
2019-04-01T02:00:47.759Z,100.00
2019-04-01T02:01:48.114Z,100.00
2019-04-01T02:02:48.560Z,100.00
2019-04-01T02:03:48.883Z,100.00
2019-04-01T02:04:49.290Z,100.00
2019-04-01T02:05:49.605Z,100.00
2019-04-01T02:06:49.932Z,100.00
2019-04-01T02:07:50.130Z,100.00
2019-04-01T02:08:50.343Z,100.00
2019-04-01T02:09:50.352Z,100.00
2019-04-01T02:10:51.283Z,100.00
2019-04-01T02:11:51.405Z,100.00
2019-04-01T02:12:51.772Z,100.00
2019-04-01T02:13:52.318Z,100.00
2019-04-01T02:14:52.329Z,100.00
2019-04-01T02:15:52.230Z,100.00
2019-04-01T02:16:52.486Z,100.00
2019-04-01T02:17:52.957Z,100.00
2019-04-01T02:18:53.481Z,100.00
2019-04-01T02:19:53.384Z,100.00
2019-04-01T02:20:54.007Z,100.00
2019-04-01T02:21:53.816Z,100.00
2019-04-01T02:22:54.128Z,100.00
2019-04-01T02:23:54.536Z,100.00
2019-04-01T02:24:54.953Z,100.00
2019-04-01T02:25:55.536Z,100.00
2019-04-01T02:26:55.483Z,100.00
2019-04-01T02:27:55.395Z,100.00
2019-04-01T02:28:55.795Z,100.00
2019-04-01T02:29:55.904Z,100.00
2019-04-01T02:30:56.448Z,100.00
2019-04-01T02:31:56.385Z,100.00
2019-04-01T02:32:56.954Z,100.00
2019-04-01T02:33:56.649Z,100.00
2019-04-01T02:34:57.095Z,100.00
2019-04-01T02:35:57.483Z,100.00
2019-04-01T02:36:57.916Z,100.00
2019-04-01T02:37:58.415Z,100.00
2019-04-01T02:38:58.835Z,100.00
2019-04-01T02:39:59.251Z,100.00
2019-04-01T02:40:59.770Z,100.00
2019-04-01T02:41:59.693Z,100.00
2019-04-01T02:43:00.397Z,100.00
2019-04-01T02:44:00.399Z,100.00
2019-04-01T02:45:00.562Z,100.00
2019-04-01T02:46:00.212Z,100.00
2019-04-01T02:47:00.523Z,100.00
2019-04-01T02:48:00.746Z,100.00
2019-04-01T02:49:01.047Z,100.00
2019-04-01T02:50:01.258Z,100.00
2019-04-01T02:51:01.716Z,100.00
2019-04-01T02:52:02.091Z,100.00
2019-04-01T02:53:02.520Z,100.00
2019-04-01T02:54:02.822Z,100.00
2019-04-01T02:55:06.657Z,100.00
2019-04-01T02:56:03.447Z,100.00
2019-04-01T02:57:03.564Z,100.00
2019-04-01T02:58:03.205Z,100.00
2019-04-01T02:59:03.471Z,100.00
2019-04-01T03:00:03.581Z,100.00
2019-04-01T03:01:03.993Z,100.00
2019-04-01T03:02:04.208Z,100.00
2019-04-01T03:03:04.739Z,100.00
2019-04-01T03:04:04.835Z,100.00
2019-04-01T03:05:04.770Z,100.00
2019-04-01T03:06:04.752Z,100.00
2019-04-01T03:07:05.467Z,100.00
2019-04-01T03:08:05.752Z,100.00
2019-04-01T03:09:05.893Z,100.00
2019-04-01T03:10:06.196Z,100.00
2019-04-01T03:11:10.441Z,100.00
2019-04-01T03:12:06.829Z,100.00
2019-04-01T03:13:07.264Z,100.00
2019-04-01T03:14:07.472Z,100.00
2019-04-01T03:15:07.691Z,100.00
2019-04-01T03:16:08.293Z,100.00
2019-04-01T03:17:08.294Z,100.00
2019-04-01T03:18:08.726Z,100.00
2019-04-01T03:19:09.227Z,100.00
2019-04-01T03:20:08.828Z,100.00
2019-04-01T03:21:09.343Z,100.00
2019-04-01T03:22:09.063Z,100.00
2019-04-01T03:23:09.569Z,100.00
2019-04-01T03:24:10.083Z,100.00
2019-04-01T03:25:09.989Z,100.00
2019-04-01T03:26:10.101Z,100.00
2019-04-01T03:27:10.508Z,100.00
2019-04-01T03:28:10.735Z,100.00
2019-04-01T03:29:10.944Z,100.00
2019-04-01T03:30:11.068Z,100.00
2019-04-01T03:31:11.475Z,100.00
2019-04-01T03:32:12.002Z,100.00
2019-04-01T03:33:12.446Z,100.00
2019-04-01T03:34:12.811Z,100.00
2019-04-01T03:35:13.229Z,100.00
2019-04-01T03:36:13.643Z,100.00
2019-04-01T03:37:13.749Z,100.00
2019-04-01T03:38:13.786Z,100.00
2019-04-01T03:39:14.174Z,100.00
2019-04-01T03:40:14.389Z,100.00
2019-04-01T03:41:14.902Z,100.00
2019-04-01T03:42:14.812Z,100.00
2019-04-01T03:43:15.345Z,100.00
2019-04-01T03:44:15.030Z,100.00
2019-04-01T03:45:15.548Z,100.00
2019-04-01T03:46:15.552Z,100.00
2019-04-01T03:47:15.461Z,100.00
2019-04-01T03:48:15.780Z,100.00
2019-04-01T03:49:16.083Z,100.00
2019-04-01T03:50:16.601Z,100.00
2019-04-01T03:51:16.307Z,100.00
2019-04-01T03:52:16.407Z,100.00
2019-04-01T03:53:16.943Z,100.00
2019-04-01T03:54:16.943Z,100.00
2019-04-01T03:55:17.250Z,100.00
2019-04-01T03:56:17.661Z,100.00
2019-04-01T03:57:17.982Z,100.00
2019-04-01T03:58:18.497Z,100.00
2019-04-01T03:59:18.266Z,100.00
2019-04-01T04:00:18.921Z,100.00
2019-04-01T04:01:18.825Z,100.00
2019-04-01T04:02:18.989Z,100.00
2019-04-01T04:03:19.559Z,100.00
2019-04-01T04:04:19.467Z,100.00
2019-04-01T04:05:19.681Z,100.00
2019-04-01T04:06:19.985Z,100.00
2019-04-01T04:07:20.211Z,100.00
2019-04-01T04:08:20.825Z,100.00
2019-04-01T04:09:20.581Z,100.00
2019-04-01T04:10:21.099Z,100.00
2019-04-01T04:11:21.449Z,100.00
2019-04-01T04:12:21.662Z,100.00
2019-04-01T04:13:21.822Z,100.00
2019-04-01T04:14:22.081Z,100.00
2019-04-01T04:15:22.517Z,100.00
2019-04-01T04:16:23.023Z,100.00
2019-04-01T04:17:22.713Z,100.00
2019-04-01T04:18:23.144Z,100.00
2019-04-01T04:19:23.357Z,100.00
2019-04-01T04:20:23.876Z,100.00
2019-04-01T04:21:24.575Z,100.00
2019-04-01T04:22:24.492Z,100.00
2019-04-01T04:23:24.806Z,100.00
2019-04-01T04:24:25.230Z,100.00
2019-04-01T04:25:26.152Z,100.00
2019-04-01T04:26:26.056Z,100.00
2019-04-01T04:27:26.453Z,100.00
2019-04-01T04:28:26.985Z,100.00
2019-04-01T04:29:27.002Z,100.00
2019-04-01T04:30:26.901Z,100.00
2019-04-01T04:31:27.209Z,100.00
2019-04-01T04:32:27.423Z,100.00
2019-04-01T04:33:27.636Z,100.00
2019-04-01T04:34:28.182Z,100.00
2019-04-01T04:35:27.909Z,100.00
2019-04-01T04:36:27.964Z,100.00
2019-04-01T04:37:28.487Z,100.00
2019-04-01T04:38:28.147Z,100.00
2019-04-01T04:39:28.400Z,100.00
2019-04-01T04:40:28.712Z,100.00
2019-04-01T04:41:28.712Z,100.00
2019-04-01T04:42:28.506Z,100.00
2019-04-01T04:43:28.940Z,100.00
2019-04-01T04:44:29.357Z,100.00
2019-04-01T04:45:29.663Z,100.00
2019-04-01T04:46:30.020Z,100.00
2019-04-01T04:47:30.600Z,100.00
2019-04-01T04:48:30.399Z,100.00
2019-04-01T04:49:30.923Z,100.00
2019-04-01T04:50:30.925Z,100.00
2019-04-01T04:51:30.829Z,100.00
2019-04-01T04:52:31.349Z,100.00
2019-04-01T04:53:31.353Z,100.00
2019-04-01T04:54:31.779Z,100.00
2019-04-01T04:55:32.288Z,100.00
2019-04-01T04:56:32.194Z,100.00
2019-04-01T04:57:32.710Z,100.00
2019-04-01T04:58:32.817Z,100.00
2019-04-01T04:59:32.768Z,100.00
2019-04-01T05:00:33.393Z,100.00
2019-04-01T05:01:33.459Z,100.00
2019-04-01T05:02:33.258Z,100.00
2019-04-01T05:03:33.471Z,100.00
2019-04-01T05:04:33.888Z,100.00
2019-04-01T05:05:34.299Z,100.00
2019-04-01T05:07:34.824Z,100.00
2019-04-01T05:08:35.342Z,100.00
2019-04-01T05:09:35.256Z,100.00
2019-04-01T05:10:35.355Z,100.00
2019-04-01T05:11:35.873Z,100.00
2019-04-01T05:12:35.885Z,100.00
2019-04-01T05:13:38.008Z,100.00
2019-04-01T05:14:36.426Z,100.00
2019-04-01T05:15:36.412Z,100.00
2019-04-01T05:16:36.418Z,100.00
2019-04-01T05:17:36.222Z,100.00
2019-04-01T05:18:36.737Z,100.00
2019-04-01T05:19:36.539Z,100.00
2019-04-01T05:20:36.964Z,100.00
2019-04-01T05:21:36.962Z,100.00
2019-04-01T05:22:37.179Z,100.00
2019-04-01T05:23:37.589Z,100.00
2019-04-01T05:24:37.874Z,100.00
2019-04-01T05:25:38.231Z,100.00
2019-04-01T05:27:38.743Z,100.00
2019-04-01T05:28:38.544Z,100.00
2019-04-01T05:29:38.659Z,100.00
2019-04-01T05:30:38.977Z,100.00
2019-04-01T05:32:39.083Z,100.00
2019-04-01T05:33:39.414Z,100.00
2019-04-01T05:34:39.404Z,100.00
2019-04-01T05:35:39.627Z,100.00
2019-04-01T05:36:40.139Z,100.00
2019-04-01T05:37:39.936Z,100.00
2019-04-01T05:38:42.952Z,100.00
2019-04-01T05:39:40.564Z,100.00
2019-04-01T05:40:40.784Z,100.00
2019-04-01T05:41:41.315Z,100.00
2019-04-01T05:42:41.503Z,100.00
2019-04-01T05:43:41.509Z,100.00
2019-04-01T05:44:41.763Z,100.00
2019-04-01T05:45:42.351Z,100.00
2019-04-01T05:46:42.254Z,100.00
2019-04-01T05:47:42.625Z,100.00
2019-04-01T05:48:42.981Z,100.00
2019-04-01T05:49:43.600Z,100.00
2019-04-01T05:50:43.615Z,100.00
2019-04-01T05:51:43.303Z,100.00
2019-04-01T05:52:43.564Z,100.00
2019-04-01T05:53:43.831Z,100.00
2019-04-01T05:54:44.320Z,100.00
2019-04-01T05:55:44.467Z,100.00
2019-04-01T05:56:44.979Z,100.00
2019-04-01T05:57:44.880Z,100.00
2019-04-01T05:58:45.191Z,100.00
2019-04-01T05:59:45.585Z,100.00
2019-04-01T06:00:46.039Z,100.00
2019-04-01T06:01:46.240Z,100.00
2019-04-01T06:02:46.763Z,100.00
2019-04-01T06:03:46.562Z,100.00
2019-04-01T06:04:47.184Z,100.00
2019-04-01T06:05:47.308Z,100.00
2019-04-01T06:06:48.954Z,100.00
2019-04-01T06:07:47.407Z,100.00
2019-04-01T06:08:47.406Z,100.00
2019-04-01T06:09:48.030Z,100.00
2019-04-01T06:10:47.944Z,100.00
2019-04-01T06:11:48.041Z,100.00
2019-04-01T06:12:48.458Z,100.00
2019-04-01T06:13:48.776Z,100.00
2019-04-01T06:14:48.988Z,100.00
2019-04-01T06:15:49.310Z,100.00
2019-04-01T06:16:49.578Z,100.00
2019-04-01T06:17:49.824Z,100.00
2019-04-01T06:18:50.348Z,100.00
2019-04-01T06:19:49.941Z,100.00
2019-04-01T06:20:50.274Z,100.00
2019-04-01T06:21:50.633Z,100.00
2019-04-01T06:22:50.987Z,100.00
2019-04-01T06:23:51.504Z,100.00
2019-04-01T06:24:51.513Z,100.00
2019-04-01T06:25:51.847Z,100.00
2019-04-01T06:26:52.036Z,100.00
2019-04-01T06:27:52.553Z,100.00
2019-04-01T06:28:52.251Z,100.00
2019-04-01T06:29:52.256Z,100.00
2019-04-01T06:30:53.211Z,100.00
2019-04-01T06:31:53.606Z,100.00
2019-04-01T06:32:53.991Z,100.00
2019-04-01T06:33:54.434Z,100.00
2019-04-01T06:34:54.648Z,100.00
2019-04-01T06:35:55.169Z,100.00
2019-04-01T06:36:54.979Z,100.00
2019-04-01T06:37:55.484Z,100.00
2019-04-01T06:38:55.392Z,100.00
2019-04-01T06:39:55.908Z,100.00
2019-04-01T06:40:56.319Z,100.00
2019-04-01T06:41:55.808Z,100.00
2019-04-01T06:42:56.320Z,100.00
2019-04-01T06:44:13.226Z,100.00
2019-04-01T06:44:56.962Z,100.00
2019-04-01T06:45:57.481Z,100.00
2019-04-01T06:46:57.493Z,100.00
2019-04-01T06:48:02.639Z,100.00
2019-04-01T06:48:57.601Z,100.00
2019-04-01T06:49:57.720Z,100.00
2019-04-01T06:50:58.229Z,100.00
2019-04-01T06:51:58.501Z,100.00
2019-04-01T06:52:58.962Z,100.00
2019-04-01T06:53:59.480Z,100.00
2019-04-01T06:54:59.584Z,100.00
2019-04-01T06:55:59.701Z,99.82
2019-04-01T06:56:59.613Z,99.86
2019-04-01T06:58:00.024Z,99.62
2019-04-01T06:59:00.226Z,98.73
2019-04-01T07:00:00.748Z,99.02
2019-04-01T07:01:00.658Z,98.33
2019-04-01T07:02:03.745Z,97.08
2019-04-01T07:03:01.178Z,97.05
2019-04-01T07:05:01.189Z,96.38
2019-04-01T07:06:01.752Z,94.73
2019-04-01T07:07:01.964Z,93.98
2019-04-01T07:08:02.028Z,94.04
2019-04-01T07:09:02.400Z,93.99
2019-04-01T07:10:02.415Z,93.08
2019-04-01T07:11:03.035Z,92.42
2019-04-01T07:12:03.098Z,90.87
2019-04-01T07:13:03.107Z,91.36
2019-04-01T07:14:03.501Z,91.29
2019-04-01T07:16:15.494Z,91.34
2019-04-01T07:17:04.356Z,88.57
2019-04-01T07:18:04.667Z,89.14
2019-04-01T07:19:04.681Z,88.61
2019-04-01T07:20:08.535Z,88.05
2019-04-01T07:21:05.800Z,87.14
2019-04-01T07:22:05.343Z,87.34
2019-04-01T07:23:05.894Z,86.50
2019-04-01T07:24:06.992Z,85.55
2019-04-01T07:25:06.130Z,84.68
2019-04-01T07:26:05.930Z,85.21
2019-04-01T07:27:08.093Z,84.40
2019-04-01T07:28:06.786Z,83.35
2019-04-01T07:29:07.190Z,82.97
2019-04-01T07:30:07.608Z,82.65
2019-04-01T07:31:07.919Z,82.76
2019-04-01T07:32:08.334Z,82.41
2019-04-01T07:33:08.761Z,81.86
2019-04-01T07:35:08.963Z,81.28
2019-04-01T07:36:09.483Z,79.66
2019-04-01T07:37:09.493Z,80.34
2019-04-01T07:38:09.444Z,79.22
2019-04-01T07:39:09.807Z,79.00
2019-04-01T07:40:13.692Z,78.11
2019-04-01T07:41:10.846Z,78.24
2019-04-01T07:42:10.771Z,77.47
2019-04-01T07:43:10.915Z,77.46
2019-04-01T07:44:11.389Z,77.28
2019-04-01T07:45:11.593Z,76.50
2019-04-01T07:46:12.008Z,75.65
2019-04-01T07:47:12.628Z,74.43
2019-04-01T07:49:12.238Z,74.47
2019-04-01T07:50:12.832Z,72.77
2019-04-01T07:51:12.664Z,72.60
2019-04-01T07:52:12.864Z,71.50
2019-04-01T07:53:13.381Z,70.55
2019-04-01T07:54:13.385Z,69.05
2019-04-01T07:55:13.905Z,67.93
2019-04-01T07:56:14.025Z,66.70
2019-04-01T07:57:14.022Z,65.68
2019-04-01T07:58:14.540Z,64.87
2019-04-01T07:59:14.345Z,64.69
2019-04-01T08:00:14.759Z,63.62
2019-04-01T08:01:15.286Z,62.88
2019-04-01T08:02:15.796Z,62.08
2019-04-01T08:03:15.801Z,62.47
2019-04-01T08:04:15.613Z,61.96
2019-04-01T08:05:16.234Z,61.23
2019-04-01T08:06:16.239Z,60.79
2019-04-01T08:07:16.757Z,60.84
2019-04-01T08:08:16.652Z,60.03
2019-04-01T08:09:16.866Z,59.95
2019-04-01T08:10:17.383Z,60.28
2019-04-01T08:11:17.199Z,60.38
2019-04-01T08:12:17.703Z,59.64
2019-04-01T08:13:18.016Z,59.15
2019-04-01T08:14:18.433Z,58.59
2019-04-01T08:15:21.346Z,57.97
2019-04-01T08:16:19.066Z,58.58
2019-04-01T08:17:18.979Z,57.94
2019-04-01T08:18:19.186Z,57.52
2019-04-01T08:19:19.287Z,57.12
2019-04-01T08:20:19.908Z,56.85
2019-04-01T08:21:19.508Z,57.86
2019-04-01T08:22:19.715Z,57.44
2019-04-01T08:23:20.243Z,56.60
2019-04-01T08:24:20.141Z,56.32
2019-04-01T08:25:20.551Z,55.94
2019-04-01T08:26:20.970Z,55.41
2019-04-01T08:27:21.269Z,53.99
2019-04-01T08:28:23.831Z,54.47
2019-04-01T08:29:30.021Z,53.88
2019-04-01T08:30:21.936Z,53.63
2019-04-01T08:31:22.337Z,53.74
2019-04-01T08:32:22.857Z,53.31
2019-04-01T08:33:22.766Z,52.74
2019-04-01T08:34:22.763Z,53.27
2019-04-01T08:35:23.590Z,53.70
2019-04-01T08:36:24.004Z,53.32
2019-04-01T08:37:24.213Z,52.88
2019-04-01T08:38:24.542Z,52.73
2019-04-01T08:39:24.746Z,53.15
2019-04-01T08:40:24.954Z,53.00
2019-04-01T08:41:25.370Z,52.59
2019-04-01T08:42:25.785Z,52.33
2019-04-01T08:43:26.108Z,52.04
2019-04-01T08:44:26.622Z,52.33
2019-04-01T08:45:26.625Z,52.29
2019-04-01T08:46:26.425Z,52.03
2019-04-01T08:47:26.948Z,52.64
2019-04-01T08:48:27.161Z,52.21
2019-04-01T08:49:27.264Z,52.13
2019-04-01T08:50:27.275Z,52.23
2019-04-01T08:51:27.177Z,51.32
2019-04-01T08:52:27.692Z,51.36
2019-04-01T08:53:27.507Z,50.63
2019-04-01T08:54:27.400Z,50.79
2019-04-01T08:55:28.059Z,50.69
2019-04-01T08:56:28.540Z,50.54
2019-04-01T08:57:28.545Z,50.95
2019-04-01T08:58:28.873Z,50.75
2019-04-01T08:59:29.378Z,51.16
2019-04-01T09:00:29.076Z,50.79
2019-04-01T09:01:35.489Z,50.43
2019-04-01T09:02:29.706Z,50.13
2019-04-01T09:03:29.954Z,49.61
2019-04-01T09:04:30.127Z,49.73
2019-04-01T09:05:30.749Z,49.28
2019-04-01T09:06:31.476Z,49.29
2019-04-01T09:07:30.865Z,49.60
2019-04-01T09:08:31.420Z,49.49
2019-04-01T09:09:31.492Z,49.66
2019-04-01T09:10:31.396Z,49.37
2019-04-01T09:11:31.506Z,49.36
2019-04-01T09:12:31.543Z,48.54
2019-04-01T09:13:31.727Z,48.53
2019-04-01T09:14:31.755Z,48.48
2019-04-01T09:15:31.428Z,48.02
2019-04-01T09:16:31.949Z,48.45
2019-04-01T09:17:32.052Z,48.33
2019-04-01T09:18:32.445Z,47.98
2019-04-01T09:19:32.987Z,47.79
2019-04-01T09:20:32.893Z,47.45
2019-04-01T09:21:32.852Z,48.21
2019-04-01T09:22:33.114Z,48.22
2019-04-01T09:23:33.335Z,47.89
2019-04-01T09:24:33.577Z,47.50
2019-04-01T09:25:33.845Z,47.27
2019-04-01T09:26:33.852Z,47.52
2019-04-01T09:27:34.272Z,47.71
2019-04-01T09:28:34.782Z,47.52
2019-04-01T09:29:34.693Z,47.33
2019-04-01T09:30:34.817Z,47.55
2019-04-01T09:31:35.120Z,47.68
2019-04-01T09:32:35.226Z,48.03
2019-04-01T09:33:35.354Z,48.23
2019-04-01T09:34:35.619Z,48.29
2019-04-01T09:35:35.862Z,48.06
2019-04-01T09:36:35.868Z,48.14
2019-04-01T09:37:35.976Z,48.56
2019-04-01T09:38:35.980Z,48.68
2019-04-01T09:39:36.201Z,48.64
2019-04-01T09:40:36.706Z,49.18
2019-04-01T09:41:37.028Z,48.86
2019-04-01T09:42:37.546Z,48.07
2019-04-01T09:43:37.564Z,47.70
2019-04-01T09:44:37.461Z,47.26
2019-04-01T09:45:37.871Z,46.63
2019-04-01T09:46:38.348Z,46.60
2019-04-01T09:47:38.803Z,46.33
2019-04-01T09:48:38.776Z,46.10
2019-04-01T09:49:39.340Z,45.86
2019-04-01T09:50:39.174Z,45.69
2019-04-01T09:51:48.519Z,45.53
2019-04-01T09:52:40.183Z,45.22
2019-04-01T09:53:40.179Z,45.12
2019-04-01T09:54:40.578Z,44.85
2019-04-01T09:55:41.106Z,44.55
2019-04-01T09:56:41.016Z,44.09
2019-04-01T09:57:41.327Z,43.97
2019-04-01T09:58:41.642Z,43.63
2019-04-01T09:59:42.183Z,44.03
2019-04-01T10:00:42.269Z,43.72
2019-04-01T10:01:42.715Z,43.66
2019-04-01T10:02:42.788Z,43.68
2019-04-01T10:03:43.211Z,43.22
2019-04-01T10:04:43.641Z,42.69
2019-04-01T10:05:43.927Z,42.34
2019-04-01T10:06:44.411Z,42.01
2019-04-01T10:07:45.139Z,41.43
2019-04-01T10:09:44.646Z,41.44
2019-04-01T10:10:44.897Z,41.26
2019-04-01T10:11:45.308Z,41.53
2019-04-01T10:12:45.727Z,41.07
2019-04-01T10:13:46.145Z,41.40
2019-04-01T10:14:46.630Z,41.08
2019-04-01T10:15:47.081Z,41.09
2019-04-01T10:16:46.880Z,41.03
2019-04-01T10:17:47.500Z,40.72
2019-04-01T10:18:47.506Z,40.69
2019-04-01T10:19:47.625Z,40.44
2019-04-01T10:20:47.586Z,40.34
2019-04-01T10:21:47.967Z,41.41
2019-04-01T10:22:48.356Z,40.62
2019-04-01T10:23:48.869Z,40.07
2019-04-01T10:24:48.881Z,39.95
2019-04-01T10:25:51.296Z,40.22
2019-04-01T10:26:49.195Z,40.59
2019-04-01T10:27:49.102Z,40.21
2019-04-01T10:28:49.415Z,40.47
2019-04-01T10:29:49.613Z,40.50
2019-04-01T10:30:50.045Z,40.38
2019-04-01T10:31:50.361Z,40.19
2019-04-01T10:32:50.481Z,40.07
2019-04-01T10:33:50.781Z,39.89
2019-04-01T10:34:51.306Z,39.68
2019-04-01T10:35:51.003Z,39.94
2019-04-01T10:36:51.516Z,40.27
2019-04-01T10:37:51.846Z,40.65
2019-04-01T10:38:52.150Z,40.88
2019-04-01T10:39:52.470Z,40.48
2019-04-01T10:40:52.670Z,40.45
2019-04-01T10:41:53.085Z,40.20
2019-04-01T10:42:53.502Z,39.95
2019-04-01T10:43:53.915Z,40.10
2019-04-01T10:44:54.334Z,40.29
2019-04-01T10:45:54.860Z,40.49
2019-04-01T10:46:54.694Z,40.26
2019-04-01T10:47:55.180Z,40.16
2019-04-01T10:48:54.965Z,40.12
2019-04-01T10:49:56.114Z,39.87
2019-04-01T10:50:55.533Z,39.88
2019-04-01T10:51:56.079Z,39.96
2019-04-01T10:52:55.936Z,39.93
2019-04-01T10:53:56.505Z,40.21
2019-04-01T10:54:56.342Z,40.50
2019-04-01T10:55:57.071Z,40.33
2019-04-01T10:56:56.604Z,40.51
2019-04-01T10:57:57.220Z,40.44
2019-04-01T10:58:57.279Z,40.53
2019-04-01T10:59:56.987Z,40.56
2019-04-01T11:01:57.544Z,40.66
2019-04-01T11:02:58.031Z,40.79
2019-04-01T11:03:57.908Z,40.46
2019-04-01T11:04:58.175Z,40.81
2019-04-01T11:05:58.649Z,40.76
2019-04-01T11:06:59.141Z,40.49
2019-04-01T11:07:59.456Z,40.20
2019-04-01T11:08:59.999Z,40.04
2019-04-01T11:10:00.364Z,39.58
2019-04-01T11:11:00.660Z,39.31
2019-04-01T11:12:01.269Z,39.21
2019-04-01T11:13:01.282Z,39.13
2019-04-01T11:14:00.927Z,38.87
2019-04-01T11:15:01.498Z,38.90
2019-04-01T11:16:01.916Z,38.79
2019-04-01T11:17:04.290Z,38.62
2019-04-01T11:18:01.938Z,38.40
2019-04-01T11:19:02.544Z,37.95
2019-04-01T11:20:02.581Z,37.56
2019-04-01T11:21:02.766Z,37.76
2019-04-01T11:22:03.810Z,37.87
2019-04-01T11:23:04.814Z,38.34
2019-04-01T11:24:02.985Z,38.41
2019-04-01T11:25:03.601Z,38.22
2019-04-01T11:26:03.829Z,37.90
2019-04-01T11:27:03.825Z,37.50
2019-04-01T11:28:04.342Z,36.98
2019-04-01T11:29:04.855Z,36.67
2019-04-01T11:30:04.664Z,36.73
2019-04-01T11:31:07.149Z,37.02
2019-04-01T11:32:04.732Z,37.25
2019-04-01T11:33:07.674Z,37.59
2019-04-01T11:34:04.710Z,37.21
2019-04-01T11:35:04.983Z,37.13
2019-04-01T11:36:05.476Z,37.21
2019-04-01T11:37:05.128Z,37.27
2019-04-01T11:38:05.540Z,36.95
2019-04-01T11:39:05.984Z,36.83
2019-04-01T11:40:10.177Z,36.99
2019-04-01T11:41:06.051Z,37.69
2019-04-01T11:42:06.699Z,36.96
2019-04-01T11:43:06.432Z,36.71
2019-04-01T11:44:06.612Z,36.75
2019-04-01T11:45:06.618Z,36.58
2019-04-01T11:46:06.953Z,36.11
2019-04-01T11:47:07.436Z,35.94
2019-04-01T11:48:07.160Z,35.91
2019-04-01T11:49:07.505Z,35.50
2019-04-01T11:50:07.878Z,35.16
2019-04-01T11:51:08.100Z,35.12
2019-04-01T11:52:09.067Z,34.75
2019-04-01T11:53:08.807Z,34.96
2019-04-01T11:54:10.090Z,35.07
2019-04-01T11:55:09.735Z,35.04
2019-04-01T11:56:10.138Z,35.30
2019-04-01T11:57:10.942Z,35.95
2019-04-01T11:58:09.659Z,35.95
2019-04-01T11:59:09.871Z,35.65
2019-04-01T12:00:12.703Z,35.46
2019-04-01T12:01:10.203Z,35.73
2019-04-01T12:02:10.401Z,35.34
2019-04-01T12:03:10.507Z,35.14
2019-04-01T12:04:10.829Z,34.95
2019-04-01T12:05:11.372Z,34.90
2019-04-01T12:06:11.352Z,34.47
2019-04-01T12:07:11.065Z,35.27
2019-04-01T12:08:11.259Z,35.07
2019-04-01T12:09:11.573Z,35.28
2019-04-01T12:10:11.786Z,35.11
2019-04-01T12:11:11.997Z,34.59
2019-04-01T12:12:23.634Z,34.54
2019-04-01T12:13:12.217Z,34.24
2019-04-01T12:14:12.636Z,33.97
2019-04-01T12:15:12.942Z,34.47
2019-04-01T12:16:13.153Z,34.93
2019-04-01T12:18:13.586Z,34.67
2019-04-01T12:19:13.995Z,35.23
2019-04-01T12:20:14.616Z,35.48
2019-04-01T12:21:14.522Z,34.86
2019-04-01T12:22:15.025Z,34.55
2019-04-01T12:23:15.046Z,34.30
2019-04-01T12:24:15.561Z,34.00
2019-04-01T12:25:15.573Z,33.83
2019-04-01T12:26:17.625Z,33.69
2019-04-01T12:27:16.319Z,34.01
2019-04-01T12:28:16.304Z,34.04
2019-04-01T12:29:16.823Z,33.99
2019-04-01T12:30:17.064Z,33.67
2019-04-01T12:31:17.252Z,33.60
2019-04-01T12:32:17.774Z,33.32
2019-04-01T12:33:18.396Z,33.76
2019-04-01T12:34:17.990Z,33.39
2019-04-01T12:35:19.315Z,33.27
2019-04-01T12:36:19.269Z,32.71
2019-04-01T12:37:18.534Z,32.71
2019-04-01T12:38:18.831Z,32.42
2019-04-01T12:39:19.345Z,32.40
2019-04-01T12:40:19.764Z,32.20
2019-04-01T12:41:20.282Z,32.27
2019-04-01T12:42:20.362Z,32.14
2019-04-01T12:43:23.420Z,31.84
2019-04-01T12:44:20.606Z,31.75
2019-04-01T12:45:20.817Z,31.64
2019-04-01T12:46:21.647Z,32.03
2019-04-01T12:47:21.517Z,32.25
2019-04-01T12:48:25.247Z,32.38
2019-04-01T12:49:22.080Z,32.49
2019-04-01T12:50:22.491Z,32.60
2019-04-01T12:51:23.008Z,32.30
2019-04-01T12:52:22.922Z,32.32
2019-04-01T12:53:23.329Z,32.13